Weather observations for the past three days for
Salisbury, Salisbury-Ocean City Wicomico County Regional Airport
Imperial (Metric)
Date Time (edt) Wind (mph) Vis. (mi.) Weather Sky Cond. Temperature (ºF) Relative Humidity Wind Chill (°F) Heat Index (°F) Pressure Precipitation (in)
Air Dwpt 6 hour altimeter (in) sea level (mb) 1 hr 3 hr 6 hr
Max. Min.
05 22:54 Calm 10.00 Fair CLR 68 66 93% 29.9 1012.6
05 21:54 Calm 10.00 Fair CLR 70 66 87% 29.89 1012.3
05 20:54 Calm 10.00 Partly Cloudy SCT070 71.1 66 84% 29.87 1011.7
05 19:54 Calm 10.00 Fair CLR 73.9 64.9 84 73 74% 29.86 1011.4
05 18:54 N 5 10.00 A Few Clouds FEW065 78.1 63 60% 80 29.85 1011.1
05 17:54 N 7 10.00 A Few Clouds FEW043 FEW120 80.1 63 56% 81 29.84 1010.7
05 16:54 NW 7 10.00 Fair CLR 82.9 64.9 55% 85 29.82 1010.0
05 13:54 N 5 10.00 A Few Clouds FEW042 82 64.9 82.9 73.9 56% 84 29.86 1011.3
05 12:54 N 5 10.00 Fair CLR 82.9 63 51% 84 29.87 1011.5
05 11:54 N 6 10.00 Fair CLR 82 64 55% 84 29.87 1011.8
05 10:54 NE 9 10.00 Light Rain SCT001 82 66 58% 84 29.87 1011.7
05 09:54 N 7 10.00 A Few Clouds FEW034 79 66.9 67% 81 29.87 1011.5
05 08:54 N 8 10.00 Mostly Cloudy BKN008 77 71.1 82% 79 29.85 1011.1
05 07:54 N 7 7.00 Overcast OVC007 73.9 72 77 72 94% 29.85 1010.9
05 06:54 NW 3 10.00 Fair CLR 73 72 96% 29.83 1010.4
05 05:54 Calm 10.00 Fair CLR 73 72 96% 29.82 1009.9
05 04:54 Calm 10.00 Fair CLR 73.9 72 94% 29.82 1009.9
05 03:54 W 6 10.00 Fair CLR 75 72 90% 74 29.83 1010.1
05 02:54 W 6 10.00 Partly Cloudy SCT040 75 72 90% 74 29.84 1010.6
05 01:54 W 7 10.00 Fair CLR 77 73 79 75.9 88% 78 29.84 1010.5
05 00:54 W 8 10.00 Fair CLR 77 72 85% 78 29.86 1011.2
04 23:54 W 7 10.00 Partly Cloudy FEW055 SCT070 77 73 88% 78 29.87 1011.7
04 22:54 Calm 10.00 A Few Clouds FEW055 78.1 73.9 87% 81 29.88 1012.0
04 21:54 Calm 10.00 Fair CLR 78.1 73 85% 81 29.89 1012.2
04 20:54 SW 3 10.00 Fair CLR 77 73 88% 78 29.89 1012.3
04 19:54 SW 3 10.00 Fair CLR 78.1 73 89.1 78.1 85% 81 29.87 1011.5
04 18:54 Calm 10.00 Fair CLR 82.9 71.1 67% 88 29.88 1012.0
04 17:54 NW 7 10.00 Fair CLR 84.9 68 57% 88 29.9 1012.6
04 16:54 NW 10 10.00 Fair CLR 87.1 68 53% 91 29.88 1012.1
04 15:54 W 8 10.00 Fair CLR 88 70 55% 93 29.89 1012.1
04 14:54 W 8 10.00 Fair CLR 88 70 55% 93 29.9 1012.7
04 13:54 NW 8 10.00 Fair CLR 87.1 69.1 87.1 75 55% 91 29.92 1013.2
04 12:54 NW 7 10.00 Fair CLR 86 69.1 57% 90 29.93 1013.5
04 11:54 W 12 G 22 10.00 Fair CLR 84.9 69.1 59% 89 29.94 1013.9
04 10:54 NW 13 10.00 Fair CLR 84 69.1 61% 88 29.94 1013.9
04 09:54 W 8 10.00 Fair CLR 81 72 74% 85 29.94 1013.9
04 08:54 W 10 10.00 Fair CLR 79 73 82% 82 29.94 1014.0
04 07:54 W 7 10.00 Fair CLR 73.9 73 75 73 97% 29.94 1014.2 0.15
04 06:54 W 7 10.00 Overcast SCT090 OVC110 73 71.1 94% 29.94 1013.9
04 05:54 SW 5 10.00 A Few Clouds FEW110 73 71.1 94% 29.91 1012.9
04 04:54 Calm 10.00 Partly Cloudy SCT110 73 71.1 94% 29.91 1013.2 0.01 0.15
04 03:54 SW 7 10.00 Light Rain CLR 73 72 96% 29.93 1013.7 0.06
04 02:54 Calm 8.00 Thunderstorm in Vicinity Light Rain FEW065 SCT095 BKN120 73.9 72 94% 29.95 1014.2 0.08
04 01:54 W 12 G 23 6.00 Thunderstorm Rain Fog/Mist SCT060 BKN070 OVC100 75.9 72 80.1 75 88% 76 29.98 1015.4 0.05 0.05
04 00:54 SW 5 5.00 Fog/Mist CLR 79 78.1 97% 83 29.92 1013.3
03 23:54 S 3 6.00 Fog/Mist CLR 78.1 77 97% 81 29.93 1013.6
03 22:54 SW 5 7.00 Fair CLR 79 77 94% 83 29.94 1014.0
03 21:54 SW 3 7.00 Fair CLR 79 77 94% 83 29.95 1014.4
03 20:54 SW 3 8.00 Fair CLR 79 77 94% 83 29.97 1015.2
03 19:54 Calm 9.00 Fair CLR 80.1 78.1 88 80.1 94% 86 29.95 1014.2
03 18:54 SW 5 6.00 Fair with Haze CLR 84 77 80% 94 29.94 1014.1
03 17:54 SW 7 10.00 Fair CLR 86 77 75% 97 29.94 1014.1
03 16:54 SW 8 10.00 A Few Clouds FEW022 84.9 77 77% 95 29.95 1014.5
03 15:54 SW 12 10.00 A Few Clouds FEW023 87.1 75.9 70% 98 29.97 1014.9
03 14:54 SW 10 10.00 Fair CLR 86 75.9 72% 96 29.98 1015.5
03 13:54 W 10 10.00 Partly Cloudy SCT024 86 75.9 87.1 72 72% 96 30 1016.2
03 12:54 W 10 10.00 Partly Cloudy SCT022 87.1 75.9 70% 98 30.01 1016.4
03 11:54 S 8 10.00 Fair CLR 84.9 75 72% 93 30.03 1017.1
03 10:54 S 12 10.00 A Few Clouds FEW029 82.9 75 77% 90 30.02 1016.8
03 09:54 SE 5 10.00 Mostly Cloudy BKN007 BKN010 75.9 73.9 94% 75 30.04 1017.4
03 07:54 Calm 2.00 Fog/Mist BKN002 OVC065 72 72 73 71.1 100% 30.07 1018.6
03 06:54 Calm 0.25 Fog VV002 72 72 100% 30.05 1017.8
03 05:54 Calm 0.25 Fog VV002 72 72 100% 30.03 1017.2
03 04:54 Calm 6.00 Fog/Mist BKN002 OVC030 72 72 100% 30.04 1017.6
03 03:54 Calm 0.25 Fog VV002 72 72 100% 30.03 1017.0
03 02:54 Calm 1.00 Fog/Mist VV002 71.1 71.1 100% 30.01 1016.5
03 01:54 Calm 0.50 Light Rain Fog VV002 73 72 73.9 72 96% 30.03 1017.2 0.01 0.01
03 00:54 NE 3 5.00 Fog/Mist OVC002 72 72 100% 30.05 1017.9
02 23:54 Calm 10.00 Partly Cloudy FEW002 SCT017 72 71.1 97% 30.04 1017.5
Date Time (edt) Wind (mph) Vis. (mi.) Weather Sky Cond. Air Dwpt Max. Min. Relative Humidity Wind Chill (°F) Heat Index (°F) altimeter (in) sea level (mb) 1 hr 3 hr 6 hr
6 hour
Temperature (ºF) Pressure Precipitation (in)